Uxbridge, United Kingdom
Current Conditions -  °F | °C
As of 3:50 PM on Sunday 23 Nov 2014 (Local Time) from EGWU Reporting Station
Broken Clouds Broken Clouds  
Wind Chill: 45°   Ceiling: 5000
Heat Index: 45°   Visibility: 6mi
Dew Point: 43°   Wind: 3mph
Humidity: 93%   Direction: 330°NNW
Pressure: 30.03"   Gusts: NA
Location:  51.54°N, 0.48°W
Report Text: EGWU 231550Z 33003KT 9999 FEW010 BKN050 07/06 Q1017 NOSIG
Loading
Personal Weather Stations






























Interactive Weather Map New forecast layout! Learn more

10-Day Weather Forecast

Advertisements
Track Severe Weather on mobile